Hinton St George, United Kingdom
Current Conditions -  °F | °C
As of 4:50 PM on Thursday 30 Oct 2014 (Local Time) from EGDY Reporting Station
Haze Haze  
Wind Chill: 61°   Ceiling: 1000
Heat Index: 61°   Visibility: 3mi
Dew Point: 57°   Wind: 6mph
Humidity: 88%   Direction: 170°S
Pressure: 30.03"   Gusts: NA
Location:  50.91°N, 2.82°W
Report Text: EGDY 301650Z 17005KT 5000 HZ BKN010 16/14 Q1017 GRN BECMG 4000 BR SCT006 YLO1
Loading
Personal Weather Stations






























Interactive Weather Map
Tropical Storm Tracking
New forecast layout! Learn more

10-Day Weather Forecast

Advertisements
Track Severe Weather on mobile